sensor_id;sensor_type;location;lat;lon;timestamp;pressure;altitude;pressure_sealevel;temperature;humidity
15308;BME280;7755;52.208;6.964;2022-11-15T00:02:51;100561.47;;;8.56;100.00
15308;BME280;7755;52.208;6.964;2022-11-15T00:07:13;100554.41;;;8.55;100.00
15308;BME280;7755;52.208;6.964;2022-11-15T00:11:54;100559.09;;;8.59;100.00
15308;BME280;7755;52.208;6.964;2022-11-15T00:16:17;100558.88;;;8.61;100.00
15308;BME280;7755;52.208;6.964;2022-11-15T00:20:39;100552.03;;;8.58;100.00
15308;BME280;7755;52.208;6.964;2022-11-15T00:25:01;100545.53;;;8.59;100.00
15308;BME280;7755;52.208;6.964;2022-11-15T00:29:23;100544.28;;;8.62;100.00
15308;BME280;7755;52.208;6.964;2022-11-15T00:33:46;100539.81;;;8.67;100.00
15308;BME280;7755;52.208;6.964;2022-11-15T00:38:07;100528.50;;;8.70;100.00
15308;BME280;7755;52.208;6.964;2022-11-15T00:42:29;100523.66;;;8.72;100.00
15308;BME280;7755;52.208;6.964;2022-11-15T00:46:50;100519.69;;;8.75;100.00
15308;BME280;7755;52.208;6.964;2022-11-15T00:51:12;100521.09;;;8.78;100.00
15308;BME280;7755;52.208;6.964;2022-11-15T00:55:34;100522.03;;;8.83;100.00
15308;BME280;7755;52.208;6.964;2022-11-15T00:59:55;100522.38;;;8.87;100.00
15308;BME280;7755;52.208;6.964;2022-11-15T01:04:16;100506.50;;;8.90;100.00
15308;BME280;7755;52.208;6.964;2022-11-15T01:08:39;100507.69;;;8.94;100.00
15308;BME280;7755;52.208;6.964;2022-11-15T01:13:01;100494.72;;;8.96;100.00
15308;BME280;7755;52.208;6.964;2022-11-15T01:17:22;100490.34;;;8.95;100.00
15308;BME280;7755;52.208;6.964;2022-11-15T01:21:43;100492.59;;;8.98;100.00
15308;BME280;7755;52.208;6.964;2022-11-15T01:26:07;100479.84;;;8.99;100.00
15308;BME280;7755;52.208;6.964;2022-11-15T01:30:30;100468.56;;;9.02;100.00
15308;BME280;7755;52.208;6.964;2022-11-15T01:34:51;100467.25;;;9.05;100.00
15308;BME280;7755;52.208;6.964;2022-11-15T01:39:13;100460.06;;;9.10;100.00
15308;BME280;7755;52.208;6.964;2022-11-15T01:43:36;100461.44;;;9.13;100.00
15308;BME280;7755;52.208;6.964;2022-11-15T01:47:58;100460.16;;;9.15;100.00
15308;BME280;7755;52.208;6.964;2022-11-15T01:52:21;100454.00;;;9.20;100.00
15308;BME280;7755;52.208;6.964;2022-11-15T01:56:46;100452.72;;;9.22;100.00
15308;BME280;7755;52.208;6.964;2022-11-15T02:01:10;100457.56;;;9.20;100.00
15308;BME280;7755;52.208;6.964;2022-11-15T02:05:32;100460.06;;;9.22;100.00
15308;BME280;7755;52.208;6.964;2022-11-15T02:09:55;100457.66;;;9.25;100.00
15308;BME280;7755;52.208;6.964;2022-11-15T02:14:19;100452.81;;;9.27;100.00
15308;BME280;7755;52.208;6.964;2022-11-15T02:18:48;100444.09;;;9.25;100.00
15308;BME280;7755;52.208;6.964;2022-11-15T02:23:31;100440.19;;;9.33;100.00
15308;BME280;7755;52.208;6.964;2022-11-15T02:28:16;100431.34;;;9.38;100.00
15308;BME280;7755;52.208;6.964;2022-11-15T02:32:47;100427.69;;;9.44;100.00
15308;BME280;7755;52.208;6.964;2022-11-15T02:37:15;100426.97;;;9.48;100.00
15308;BME280;7755;52.208;6.964;2022-11-15T02:41:47;100430.25;;;9.50;100.00
15308;BME280;7755;52.208;6.964;2022-11-15T02:46:15;100432.22;;;9.55;100.00
15308;BME280;7755;52.208;6.964;2022-11-15T02:50:41;100421.50;;;9.60;100.00
15308;BME280;7755;52.208;6.964;2022-11-15T02:55:04;100419.69;;;9.66;100.00
15308;BME280;7755;52.208;6.964;2022-11-15T02:59:58;100420.38;;;9.73;100.00
15308;BME280;7755;52.208;6.964;2022-11-15T03:04:29;100414.50;;;9.76;100.00
15308;BME280;7755;52.208;6.964;2022-11-15T03:09:04;100418.34;;;9.80;100.00
15308;BME280;7755;52.208;6.964;2022-11-15T03:13:27;100422.00;;;9.85;100.00
15308;BME280;7755;52.208;6.964;2022-11-15T03:17:56;100415.03;;;9.90;100.00
15308;BME280;7755;52.208;6.964;2022-11-15T03:22:23;100427.63;;;9.96;100.00
15308;BME280;7755;52.208;6.964;2022-11-15T03:26:47;100418.16;;;9.98;100.00
15308;BME280;7755;52.208;6.964;2022-11-15T03:31:11;100411.16;;;10.02;100.00
15308;BME280;7755;52.208;6.964;2022-11-15T03:35:47;100416.59;;;10.02;100.00
15308;BME280;7755;52.208;6.964;2022-11-15T03:40:10;100409.34;;;10.08;100.00
15308;BME280;7755;52.208;6.964;2022-11-15T03:44:39;100409.47;;;10.13;100.00
15308;BME280;7755;52.208;6.964;2022-11-15T03:49:06;100407.31;;;10.15;100.00
15308;BME280;7755;52.208;6.964;2022-11-15T03:53:29;100408.47;;;10.19;100.00
15308;BME280;7755;52.208;6.964;2022-11-15T03:57:54;100414.25;;;10.23;100.00
15308;BME280;7755;52.208;6.964;2022-11-15T04:02:19;100410.56;;;10.29;100.00
15308;BME280;7755;52.208;6.964;2022-11-15T04:06:40;100407.94;;;10.34;100.00
15308;BME280;7755;52.208;6.964;2022-11-15T04:11:01;100399.38;;;10.42;100.00
15308;BME280;7755;52.208;6.964;2022-11-15T04:15:23;100405.16;;;10.46;100.00
15308;BME280;7755;52.208;6.964;2022-11-15T04:19:46;100396.50;;;10.49;100.00
15308;BME280;7755;52.208;6.964;2022-11-15T04:24:25;100402.59;;;10.56;100.00
15308;BME280;7755;52.208;6.964;2022-11-15T04:28:46;100410.50;;;10.57;100.00
15308;BME280;7755;52.208;6.964;2022-11-15T04:33:22;100397.56;;;10.64;100.00
15308;BME280;7755;52.208;6.964;2022-11-15T04:37:44;100405.22;;;10.68;100.00
15308;BME280;7755;52.208;6.964;2022-11-15T04:42:08;100403.88;;;10.70;100.00
15308;BME280;7755;52.208;6.964;2022-11-15T04:46:30;100396.41;;;10.77;100.00
15308;BME280;7755;52.208;6.964;2022-11-15T04:50:52;100397.88;;;10.85;100.00
15308;BME280;7755;52.208;6.964;2022-11-15T04:55:14;100397.09;;;10.89;100.00
15308;BME280;7755;52.208;6.964;2022-11-15T04:59:36;100401.28;;;10.97;100.00
15308;BME280;7755;52.208;6.964;2022-11-15T05:03:57;100394.84;;;11.03;100.00
15308;BME280;7755;52.208;6.964;2022-11-15T05:08:36;100407.97;;;11.06;100.00
15308;BME280;7755;52.208;6.964;2022-11-15T05:12:59;100404.16;;;11.07;100.00
15308;BME280;7755;52.208;6.964;2022-11-15T05:17:20;100397.97;;;11.12;100.00
15308;BME280;7755;52.208;6.964;2022-11-15T05:21:42;100408.63;;;11.13;100.00
15308;BME280;7755;52.208;6.964;2022-11-15T05:26:04;100398.84;;;11.17;100.00
15308;BME280;7755;52.208;6.964;2022-11-15T05:30:30;100391.59;;;11.23;100.00
15308;BME280;7755;52.208;6.964;2022-11-15T05:34:51;100394.13;;;11.30;100.00
15308;BME280;7755;52.208;6.964;2022-11-15T05:39:12;100392.00;;;11.32;100.00
15308;BME280;7755;52.208;6.964;2022-11-15T05:43:36;100383.88;;;11.37;100.00
15308;BME280;7755;52.208;6.964;2022-11-15T05:48:05;100392.91;;;11.42;100.00
15308;BME280;7755;52.208;6.964;2022-11-15T05:52:30;100394.56;;;11.43;100.00
15308;BME280;7755;52.208;6.964;2022-11-15T05:56:53;100386.97;;;11.45;100.00
15308;BME280;7755;52.208;6.964;2022-11-15T06:01:16;100394.06;;;11.46;100.00
15308;BME280;7755;52.208;6.964;2022-11-15T06:05:39;100392.16;;;11.47;100.00
15308;BME280;7755;52.208;6.964;2022-11-15T06:10:00;100395.44;;;11.49;100.00
15308;BME280;7755;52.208;6.964;2022-11-15T06:14:21;100402.31;;;11.52;100.00
15308;BME280;7755;52.208;6.964;2022-11-15T06:18:43;100411.03;;;11.54;100.00
15308;BME280;7755;52.208;6.964;2022-11-15T06:23:05;100410.78;;;11.55;100.00
15308;BME280;7755;52.208;6.964;2022-11-15T06:27:27;100408.03;;;11.55;100.00
15308;BME280;7755;52.208;6.964;2022-11-15T06:31:48;100407.75;;;11.52;100.00
15308;BME280;7755;52.208;6.964;2022-11-15T06:36:11;100403.44;;;11.56;100.00
15308;BME280;7755;52.208;6.964;2022-11-15T06:40:38;100409.69;;;11.56;100.00
15308;BME280;7755;52.208;6.964;2022-11-15T06:45:00;100407.28;;;11.60;100.00
15308;BME280;7755;52.208;6.964;2022-11-15T06:49:22;100415.19;;;11.61;100.00
15308;BME280;7755;52.208;6.964;2022-11-15T06:53:44;100408.13;;;11.60;100.00
15308;BME280;7755;52.208;6.964;2022-11-15T06:58:06;100413.81;;;11.59;100.00
15308;BME280;7755;52.208;6.964;2022-11-15T07:02:28;100419.50;;;11.57;100.00
15308;BME280;7755;52.208;6.964;2022-11-15T07:06:49;100421.47;;;11.62;100.00
15308;BME280;7755;52.208;6.964;2022-11-15T07:11:11;100426.09;;;11.61;100.00
15308;BME280;7755;52.208;6.964;2022-11-15T07:15:33;100433.19;;;11.62;100.00
15308;BME280;7755;52.208;6.964;2022-11-15T07:19:55;100428.00;;;11.61;100.00
15308;BME280;7755;52.208;6.964;2022-11-15T07:24:16;100432.56;;;11.55;100.00
15308;BME280;7755;52.208;6.964;2022-11-15T07:28:37;100434.75;;;11.58;100.00
15308;BME280;7755;52.208;6.964;2022-11-15T07:33:00;100440.78;;;11.60;100.00
15308;BME280;7755;52.208;6.964;2022-11-15T07:37:22;100432.88;;;11.59;100.00
15308;BME280;7755;52.208;6.964;2022-11-15T07:41:43;100439.38;;;11.58;100.00
15308;BME280;7755;52.208;6.964;2022-11-15T07:46:05;100431.81;;;11.60;100.00
15308;BME280;7755;52.208;6.964;2022-11-15T07:50:30;100428.81;;;11.61;100.00
15308;BME280;7755;52.208;6.964;2022-11-15T07:54:51;100430.53;;;11.67;100.00
15308;BME280;7755;52.208;6.964;2022-11-15T07:59:12;100427.06;;;11.72;100.00
15308;BME280;7755;52.208;6.964;2022-11-15T08:03:34;100435.53;;;11.75;100.00
15308;BME280;7755;52.208;6.964;2022-11-15T08:07:57;100432.53;;;11.77;100.00
15308;BME280;7755;52.208;6.964;2022-11-15T08:12:19;100439.88;;;11.76;100.00
15308;BME280;7755;52.208;6.964;2022-11-15T08:16:40;100429.56;;;11.79;100.00
15308;BME280;7755;52.208;6.964;2022-11-15T08:21:02;100424.72;;;11.81;100.00
15308;BME280;7755;52.208;6.964;2022-11-15T08:25:26;100427.75;;;11.84;100.00
15308;BME280;7755;52.208;6.964;2022-11-15T08:29:49;100423.69;;;11.87;100.00
15308;BME280;7755;52.208;6.964;2022-11-15T08:34:16;100414.19;;;11.89;100.00
15308;BME280;7755;52.208;6.964;2022-11-15T08:38:37;100418.06;;;11.93;100.00
15308;BME280;7755;52.208;6.964;2022-11-15T08:43:00;100411.81;;;11.98;100.00
15308;BME280;7755;52.208;6.964;2022-11-15T08:47:23;100419.22;;;12.02;100.00
15308;BME280;7755;52.208;6.964;2022-11-15T08:51:45;100414.91;;;12.07;100.00
15308;BME280;7755;52.208;6.964;2022-11-15T08:56:07;100408.94;;;12.10;100.00
15308;BME280;7755;52.208;6.964;2022-11-15T09:00:30;100411.19;;;12.18;100.00
15308;BME280;7755;52.208;6.964;2022-11-15T09:04:51;100406.88;;;12.22;100.00
15308;BME280;7755;52.208;6.964;2022-11-15T09:09:12;100401.47;;;12.27;100.00
15308;BME280;7755;52.208;6.964;2022-11-15T09:13:34;100398.53;;;12.34;100.00
15308;BME280;7755;52.208;6.964;2022-11-15T09:17:59;100400.72;;;12.37;100.00
15308;BME280;7755;52.208;6.964;2022-11-15T09:22:20;100385.78;;;12.44;100.00
15308;BME280;7755;52.208;6.964;2022-11-15T09:26:42;100392.44;;;12.53;100.00
15308;BME280;7755;52.208;6.964;2022-11-15T09:31:04;100389.72;;;12.58;100.00
15308;BME280;7755;52.208;6.964;2022-11-15T09:35:31;100386.16;;;12.58;100.00
15308;BME280;7755;52.208;6.964;2022-11-15T09:39:52;100391.91;;;12.56;100.00
15308;BME280;7755;52.208;6.964;2022-11-15T09:44:36;100396.53;;;12.56;100.00
15308;BME280;7755;52.208;6.964;2022-11-15T09:49:00;100396.81;;;12.54;100.00
15308;BME280;7755;52.208;6.964;2022-11-15T09:53:12;100400.03;;;12.51;100.00
15308;BME280;7755;52.208;6.964;2022-11-15T09:57:20;100404.41;;;12.52;100.00
15308;BME280;7755;52.208;6.964;2022-11-15T10:01:33;100403.03;;;12.50;100.00
15308;BME280;7755;52.208;6.964;2022-11-15T10:05:42;100398.44;;;12.55;100.00
15308;BME280;7755;52.208;6.964;2022-11-15T10:09:50;100400.06;;;12.56;100.00
15308;BME280;7755;52.208;6.964;2022-11-15T10:13:59;100394.88;;;12.55;100.00
15308;BME280;7755;52.208;6.964;2022-11-15T10:18:15;100393.25;;;12.54;100.00
15308;BME280;7755;52.208;6.964;2022-11-15T10:22:25;100396.53;;;12.56;100.00
15308;BME280;7755;52.208;6.964;2022-11-15T10:26:30;100393.25;;;12.59;100.00
15308;BME280;7755;52.208;6.964;2022-11-15T10:30:35;100381.91;;;12.67;100.00
15308;BME280;7755;52.208;6.964;2022-11-15T10:34:38;100384.41;;;12.74;100.00
15308;BME280;7755;52.208;6.964;2022-11-15T10:38:51;100379.00;;;12.84;100.00
15308;BME280;7755;52.208;6.964;2022-11-15T10:43:05;100372.16;;;12.87;100.00
15308;BME280;7755;52.208;6.964;2022-11-15T10:47:26;100371.69;;;12.95;100.00
15308;BME280;7755;52.208;6.964;2022-11-15T10:51:41;100354.81;;;13.03;100.00
15308;BME280;7755;52.208;6.964;2022-11-15T10:55:47;100344.44;;;13.05;100.00
15308;BME280;7755;52.208;6.964;2022-11-15T10:59:54;100343.91;;;13.03;100.00
15308;BME280;7755;52.208;6.964;2022-11-15T11:03:59;100336.22;;;13.00;100.00
15308;BME280;7755;52.208;6.964;2022-11-15T11:08:04;100332.97;;;13.03;100.00
15308;BME280;7755;52.208;6.964;2022-11-15T11:12:10;100325.59;;;12.98;100.00
15308;BME280;7755;52.208;6.964;2022-11-15T11:16:34;100322.84;;;12.98;100.00
15308;BME280;7755;52.208;6.964;2022-11-15T11:20:44;100322.88;;;13.03;100.00
15308;BME280;7755;52.208;6.964;2022-11-15T11:25:00;100326.16;;;13.05;100.00
15308;BME280;7755;52.208;6.964;2022-11-15T11:29:16;100319.91;;;13.10;100.00
15308;BME280;7755;52.208;6.964;2022-11-15T11:33:29;100309.81;;;13.10;100.00
15308;BME280;7755;52.208;6.964;2022-11-15T11:37:39;100301.94;;;13.14;100.00
15308;BME280;7755;52.208;6.964;2022-11-15T11:41:50;100307.72;;;13.23;100.00
15308;BME280;7755;52.208;6.964;2022-11-15T11:46:09;100307.44;;;13.24;100.00
15308;BME280;7755;52.208;6.964;2022-11-15T11:50:18;100301.97;;;13.24;100.00
15308;BME280;7755;52.208;6.964;2022-11-15T11:54:25;100299.00;;;13.31;100.00
15308;BME280;7755;52.208;6.964;2022-11-15T11:58:35;100288.09;;;13.41;100.00
15308;BME280;7755;52.208;6.964;2022-11-15T12:02:41;100290.81;;;13.41;100.00
15308;BME280;7755;52.208;6.964;2022-11-15T12:06:49;100284.28;;;13.42;100.00
15308;BME280;7755;52.208;6.964;2022-11-15T12:11:00;100287.56;;;13.54;100.00
15308;BME280;7755;52.208;6.964;2022-11-15T12:15:11;100274.47;;;13.61;100.00
15308;BME280;7755;52.208;6.964;2022-11-15T12:19:14;100262.22;;;13.69;100.00
15308;BME280;7755;52.208;6.964;2022-11-15T12:23:21;100271.22;;;13.70;100.00
15308;BME280;7755;52.208;6.964;2022-11-15T12:27:31;100266.31;;;13.72;100.00
15308;BME280;7755;52.208;6.964;2022-11-15T12:31:38;100264.09;;;13.74;100.00
15308;BME280;7755;52.208;6.964;2022-11-15T12:35:42;100276.41;;;13.71;99.18
15308;BME280;7755;52.208;6.964;2022-11-15T12:44:57;100260.00;;;13.66;98.92
15308;BME280;7755;52.208;6.964;2022-11-15T12:49:02;100245.81;;;13.69;98.29
15308;BME280;7755;52.208;6.964;2022-11-15T12:53:26;100246.06;;;13.73;97.19
15308;BME280;7755;52.208;6.964;2022-11-15T12:57:36;100251.81;;;13.71;94.26
15308;BME280;7755;52.208;6.964;2022-11-15T13:01:59;100238.44;;;13.70;92.84
15308;BME280;7755;52.208;6.964;2022-11-15T13:06:09;100234.59;;;13.65;90.89
15308;BME280;7755;52.208;6.964;2022-11-15T13:10:30;100220.41;;;13.69;92.01
15308;BME280;7755;52.208;6.964;2022-11-15T13:14:44;100203.44;;;13.66;88.72
15308;BME280;7755;52.208;6.964;2022-11-15T13:18:53;100194.44;;;13.71;88.95
15308;BME280;7755;52.208;6.964;2022-11-15T13:23:02;100183.53;;;13.76;87.90
15308;BME280;7755;52.208;6.964;2022-11-15T13:27:15;100180.22;;;13.74;85.80
15308;BME280;7755;52.208;6.964;2022-11-15T13:31:33;100170.13;;;13.80;85.77
15308;BME280;7755;52.208;6.964;2022-11-15T13:35:41;100169.31;;;13.79;84.86
15308;BME280;7755;52.208;6.964;2022-11-15T13:39:44;100167.38;;;13.80;84.35
15308;BME280;7755;52.208;6.964;2022-11-15T13:43:49;100168.75;;;13.77;83.04
15308;BME280;7755;52.208;6.964;2022-11-15T13:47:56;100167.94;;;13.72;80.37
15308;BME280;7755;52.208;6.964;2022-11-15T13:52:00;100162.19;;;13.68;78.76
15308;BME280;7755;52.208;6.964;2022-11-15T13:56:05;100153.75;;;13.64;77.59
15308;BME280;7755;52.208;6.964;2022-11-15T14:00:36;100144.47;;;13.55;76.79
15308;BME280;7755;52.208;6.964;2022-11-15T14:04:48;100135.16;;;13.46;73.25
15308;BME280;7755;52.208;6.964;2022-11-15T14:09:24;100135.72;;;13.43;75.83
15308;BME280;7755;52.208;6.964;2022-11-15T14:13:30;100130.28;;;13.43;74.28
15308;BME280;7755;52.208;6.964;2022-11-15T14:17:36;100131.91;;;13.44;75.63
15308;BME280;7755;52.208;6.964;2022-11-15T14:22:14;100125.34;;;13.40;75.72
15308;BME280;7755;52.208;6.964;2022-11-15T14:26:29;100127.53;;;13.33;76.48
15308;BME280;7755;52.208;6.964;2022-11-15T14:30:32;100124.53;;;13.29;77.01
15308;BME280;7755;52.208;6.964;2022-11-15T14:34:35;100126.16;;;13.25;78.15
15308;BME280;7755;52.208;6.964;2022-11-15T14:38:39;100112.75;;;13.19;78.27
15308;BME280;7755;52.208;6.964;2022-11-15T14:42:45;100108.13;;;13.14;78.79
15308;BME280;7755;52.208;6.964;2022-11-15T14:46:48;100104.00;;;13.06;80.17
15308;BME280;7755;52.208;6.964;2022-11-15T14:50:51;100096.63;;;12.97;80.34
15308;BME280;7755;52.208;6.964;2022-11-15T14:54:55;100088.97;;;12.94;82.07
15308;BME280;7755;52.208;6.964;2022-11-15T14:59:00;100084.88;;;12.86;80.92
15308;BME280;7755;52.208;6.964;2022-11-15T15:03:04;100080.78;;;12.83;80.29
15308;BME280;7755;52.208;6.964;2022-11-15T15:07:07;100075.88;;;12.75;79.58
15308;BME280;7755;52.208;6.964;2022-11-15T15:11:14;100062.50;;;12.69;79.62
15308;BME280;7755;52.208;6.964;2022-11-15T15:15:22;100064.94;;;12.65;81.37
15308;BME280;7755;52.208;6.964;2022-11-15T15:19:27;100061.09;;;12.56;80.07
15308;BME280;7755;52.208;6.964;2022-11-15T15:23:30;100059.19;;;12.51;80.68
15308;BME280;7755;52.208;6.964;2022-11-15T15:27:35;100046.09;;;12.48;81.21
15308;BME280;7755;52.208;6.964;2022-11-15T15:31:40;100040.91;;;12.47;81.78
15308;BME280;7755;52.208;6.964;2022-11-15T15:35:53;100032.44;;;12.43;82.32
15308;BME280;7755;52.208;6.964;2022-11-15T15:39:56;100024.25;;;12.38;81.65
15308;BME280;7755;52.208;6.964;2022-11-15T15:44:01;100027.25;;;12.37;81.94
15308;BME280;7755;52.208;6.964;2022-11-15T15:48:04;100024.25;;;12.33;80.89
15308;BME280;7755;52.208;6.964;2022-11-15T15:52:08;100019.06;;;12.32;81.17
15308;BME280;7755;52.208;6.964;2022-11-15T15:56:11;100013.63;;;12.26;80.85
15308;BME280;7755;52.208;6.964;2022-11-15T16:00:16;100012.53;;;12.27;80.97
15308;BME280;7755;52.208;6.964;2022-11-15T16:04:20;99998.06;;;12.27;81.93
15308;BME280;7755;52.208;6.964;2022-11-15T16:08:23;100003.78;;;12.25;81.91
15308;BME280;7755;52.208;6.964;2022-11-15T16:12:28;99990.69;;;12.22;81.79
15308;BME280;7755;52.208;6.964;2022-11-15T16:16:32;99992.88;;;12.20;82.02
15308;BME280;7755;52.208;6.964;2022-11-15T16:20:37;99983.06;;;12.19;82.53
15308;BME280;7755;52.208;6.964;2022-11-15T16:24:41;99978.97;;;12.22;83.15
15308;BME280;7755;52.208;6.964;2022-11-15T16:28:43;99973.00;;;12.20;82.70
15308;BME280;7755;52.208;6.964;2022-11-15T16:32:48;99973.25;;;12.23;82.77
15308;BME280;7755;52.208;6.964;2022-11-15T16:36:52;99972.97;;;12.25;83.06
15308;BME280;7755;52.208;6.964;2022-11-15T16:40:56;99965.38;;;12.27;83.53
15308;BME280;7755;52.208;6.964;2022-11-15T16:44:58;99963.47;;;12.27;83.59
15308;BME280;7755;52.208;6.964;2022-11-15T16:49:03;99952.81;;;12.31;83.73
15308;BME280;7755;52.208;6.964;2022-11-15T16:53:06;99954.72;;;12.30;83.47
15308;BME280;7755;52.208;6.964;2022-11-15T16:57:10;99951.72;;;12.32;83.89
15308;BME280;7755;52.208;6.964;2022-11-15T17:01:17;99941.94;;;12.36;84.01
15308;BME280;7755;52.208;6.964;2022-11-15T17:05:23;99943.56;;;12.37;83.99
15308;BME280;7755;52.208;6.964;2022-11-15T17:09:27;99937.00;;;12.38;84.90
15308;BME280;7755;52.208;6.964;2022-11-15T17:13:30;99943.56;;;12.42;84.81
15308;BME280;7755;52.208;6.964;2022-11-15T17:17:34;99933.19;;;12.39;84.86
15308;BME280;7755;52.208;6.964;2022-11-15T17:21:38;99922.28;;;12.39;84.39
15308;BME280;7755;52.208;6.964;2022-11-15T17:25:41;99923.13;;;12.40;85.03
15308;BME280;7755;52.208;6.964;2022-11-15T17:29:44;99911.41;;;12.34;84.67
15308;BME280;7755;52.208;6.964;2022-11-15T17:33:47;99913.03;;;12.35;85.12
15308;BME280;7755;52.208;6.964;2022-11-15T17:37:51;99925.84;;;12.35;84.97
15308;BME280;7755;52.208;6.964;2022-11-15T17:41:54;99920.69;;;12.33;84.77
15308;BME280;7755;52.208;6.964;2022-11-15T17:45:57;99914.66;;;12.36;84.88
15308;BME280;7755;52.208;6.964;2022-11-15T17:50:00;99911.13;;;12.36;84.72
15308;BME280;7755;52.208;6.964;2022-11-15T17:54:04;99907.59;;;12.35;84.74
15308;BME280;7755;52.208;6.964;2022-11-15T17:58:07;99910.59;;;12.34;84.42
15308;BME280;7755;52.208;6.964;2022-11-15T18:02:10;99902.66;;;12.32;85.65
15308;BME280;7755;52.208;6.964;2022-11-15T18:06:14;99884.97;;;12.35;85.11
15308;BME280;7755;52.208;6.964;2022-11-15T18:10:19;99890.41;;;12.35;85.64
15308;BME280;7755;52.208;6.964;2022-11-15T18:14:22;99887.41;;;12.36;85.05
15308;BME280;7755;52.208;6.964;2022-11-15T18:18:26;99880.03;;;12.37;85.18
15308;BME280;7755;52.208;6.964;2022-11-15T18:22:29;99866.16;;;12.43;85.43
15308;BME280;7755;52.208;6.964;2022-11-15T18:26:33;99862.59;;;12.43;86.56
15308;BME280;7755;52.208;6.964;2022-11-15T18:30:37;99872.41;;;12.44;86.65
15308;BME280;7755;52.208;6.964;2022-11-15T18:34:41;99874.31;;;12.43;85.71
15308;BME280;7755;52.208;6.964;2022-11-15T18:38:44;99876.50;;;12.51;85.77
15308;BME280;7755;52.208;6.964;2022-11-15T18:42:51;99874.34;;;12.53;85.65
15308;BME280;7755;52.208;6.964;2022-11-15T18:46:55;99875.97;;;12.54;85.76
15308;BME280;7755;52.208;6.964;2022-11-15T18:51:01;99866.13;;;12.58;85.89
15308;BME280;7755;52.208;6.964;2022-11-15T18:55:06;99857.41;;;12.56;86.46
15308;BME280;7755;52.208;6.964;2022-11-15T18:59:11;99857.13;;;12.58;86.16
15308;BME280;7755;52.208;6.964;2022-11-15T19:03:14;99849.75;;;12.58;86.38
15308;BME280;7755;52.208;6.964;2022-11-15T19:07:23;99854.13;;;12.60;86.55
15308;BME280;7755;52.208;6.964;2022-11-15T19:11:28;99842.16;;;12.61;86.75
15308;BME280;7755;52.208;6.964;2022-11-15T19:15:33;99848.41;;;12.61;86.92
15308;BME280;7755;52.208;6.964;2022-11-15T19:19:36;99844.88;;;12.61;87.27
15308;BME280;7755;52.208;6.964;2022-11-15T19:23:40;99839.41;;;12.61;87.81
15308;BME280;7755;52.208;6.964;2022-11-15T19:27:43;99830.69;;;12.58;89.12
15308;BME280;7755;52.208;6.964;2022-11-15T19:31:48;99833.16;;;12.55;89.77
15308;BME280;7755;52.208;6.964;2022-11-15T19:35:50;99827.97;;;12.53;90.15
15308;BME280;7755;52.208;6.964;2022-11-15T19:39:53;99835.88;;;12.50;90.30
15308;BME280;7755;52.208;6.964;2022-11-15T19:43:56;99824.41;;;12.53;91.63
15308;BME280;7755;52.208;6.964;2022-11-15T19:48:00;99820.63;;;12.49;93.05
15308;BME280;7755;52.208;6.964;2022-11-15T19:52:03;99824.44;;;12.43;95.03
15308;BME280;7755;52.208;6.964;2022-11-15T19:56:10;99825.53;;;12.42;96.30
15308;BME280;7755;52.208;6.964;2022-11-15T20:00:13;99823.09;;;12.35;97.02
15308;BME280;7755;52.208;6.964;2022-11-15T20:04:17;99826.91;;;12.34;97.63
15308;BME280;7755;52.208;6.964;2022-11-15T20:08:20;99813.53;;;12.33;97.41
15308;BME280;7755;52.208;6.964;2022-11-15T20:12:23;99806.72;;;12.30;98.00
15308;BME280;7755;52.208;6.964;2022-11-15T20:16:26;99802.38;;;12.29;98.39
15308;BME280;7755;52.208;6.964;2022-11-15T20:20:31;99793.91;;;12.30;98.63
15308;BME280;7755;52.208;6.964;2022-11-15T20:24:33;99793.09;;;12.25;98.57
15308;BME280;7755;52.208;6.964;2022-11-15T20:28:37;99788.22;;;12.27;98.64
15308;BME280;7755;52.208;6.964;2022-11-15T20:32:40;99785.22;;;12.28;99.05
15308;BME280;7755;52.208;6.964;2022-11-15T20:36:45;99781.38;;;12.29;99.32
15308;BME280;7755;52.208;6.964;2022-11-15T20:40:48;99777.56;;;12.30;99.75
15308;BME280;7755;52.208;6.964;2022-11-15T20:44:55;99785.22;;;12.28;100.00
15308;BME280;7755;52.208;6.964;2022-11-15T20:48:58;99781.91;;;12.32;100.00
15308;BME280;7755;52.208;6.964;2022-11-15T20:53:03;99781.66;;;12.33;100.00
15308;BME280;7755;52.208;6.964;2022-11-15T20:57:05;99777.84;;;12.34;100.00
15308;BME280;7755;52.208;6.964;2022-11-15T21:01:11;99780.81;;;12.38;100.00
15308;BME280;7755;52.208;6.964;2022-11-15T21:05:15;99776.75;;;12.35;100.00
15308;BME280;7755;52.208;6.964;2022-11-15T21:09:19;99777.56;;;12.36;100.00
15308;BME280;7755;52.208;6.964;2022-11-15T21:13:40;99764.47;;;12.33;100.00
15308;BME280;7755;52.208;6.964;2022-11-15T21:17:42;99769.94;;;12.27;100.00
15308;BME280;7755;52.208;6.964;2022-11-15T21:21:45;99769.94;;;12.22;100.00
15308;BME280;7755;52.208;6.964;2022-11-15T21:25:50;99771.56;;;12.18;100.00
15308;BME280;7755;52.208;6.964;2022-11-15T21:29:53;99771.31;;;12.20;100.00
15308;BME280;7755;52.208;6.964;2022-11-15T21:33:55;99763.44;;;12.13;100.00
15308;BME280;7755;52.208;6.964;2022-11-15T21:37:59;99747.88;;;12.09;100.00
15308;BME280;7755;52.208;6.964;2022-11-15T21:42:03;99750.06;;;12.12;100.00
15308;BME280;7755;52.208;6.964;2022-11-15T21:46:06;99748.41;;;12.11;100.00
15308;BME280;7755;52.208;6.964;2022-11-15T21:50:09;99745.16;;;12.09;100.00
15308;BME280;7755;52.208;6.964;2022-11-15T21:54:11;99741.91;;;12.01;100.00
15308;BME280;7755;52.208;6.964;2022-11-15T21:58:16;99741.91;;;12.01;100.00
15308;BME280;7755;52.208;6.964;2022-11-15T22:02:18;99734.25;;;11.98;100.00
15308;BME280;7755;52.208;6.964;2022-11-15T22:06:21;99727.19;;;12.02;100.00
15308;BME280;7755;52.208;6.964;2022-11-15T22:10:24;99723.13;;;12.00;100.00
15308;BME280;7755;52.208;6.964;2022-11-15T22:14:28;99723.66;;;12.02;100.00
15308;BME280;7755;52.208;6.964;2022-11-15T22:18:31;99724.22;;;11.99;100.00
15308;BME280;7755;52.208;6.964;2022-11-15T22:22:35;99719.81;;;11.98;100.00
15308;BME280;7755;52.208;6.964;2022-11-15T22:26:37;99707.03;;;11.93;100.00